sensor_id;sensor_type;location;lat;lon;timestamp;P1;durP1;ratioP1;P2;durP2;ratioP2
79084;SDS011;68486;42.808;23.422;2023-04-03T00:01:03;1.70;;;1.50;;
79084;SDS011;68486;42.808;23.422;2023-04-03T00:03:29;2.05;;;1.40;;
79084;SDS011;68486;42.808;23.422;2023-04-03T00:05:54;3.65;;;1.95;;
79084;SDS011;68486;42.808;23.422;2023-04-03T00:08:20;2.10;;;1.70;;
79084;SDS011;68486;42.808;23.422;2023-04-03T00:10:46;2.10;;;1.50;;
79084;SDS011;68486;42.808;23.422;2023-04-03T00:13:11;3.13;;;1.63;;
79084;SDS011;68486;42.808;23.422;2023-04-03T00:15:38;2.00;;;1.45;;
79084;SDS011;68486;42.808;23.422;2023-04-03T00:18:04;3.33;;;1.40;;
79084;SDS011;68486;42.808;23.422;2023-04-03T00:20:30;3.15;;;1.90;;
79084;SDS011;68486;42.808;23.422;2023-04-03T00:22:56;1.90;;;1.58;;
79084;SDS011;68486;42.808;23.422;2023-04-03T00:25:22;1.90;;;1.40;;
79084;SDS011;68486;42.808;23.422;2023-04-03T00:27:48;2.33;;;1.50;;
79084;SDS011;68486;42.808;23.422;2023-04-03T00:30:14;3.47;;;1.70;;
79084;SDS011;68486;42.808;23.422;2023-04-03T00:32:41;6.28;;;3.67;;
79084;SDS011;68486;42.808;23.422;2023-04-03T00:35:06;19.65;;;7.20;;
79084;SDS011;68486;42.808;23.422;2023-04-03T00:37:33;5.20;;;3.17;;
79084;SDS011;68486;42.808;23.422;2023-04-03T00:39:58;3.03;;;2.25;;
79084;SDS011;68486;42.808;23.422;2023-04-03T00:42:24;5.22;;;2.30;;
79084;SDS011;68486;42.808;23.422;2023-04-03T00:47:18;3.60;;;2.08;;
79084;SDS011;68486;42.808;23.422;2023-04-03T00:49:44;2.33;;;1.70;;
79084;SDS011;68486;42.808;23.422;2023-04-03T00:52:15;1.92;;;1.45;;
79084;SDS011;68486;42.808;23.422;2023-04-03T00:54:45;3.25;;;2.17;;
79084;SDS011;68486;42.808;23.422;2023-04-03T00:57:12;2.30;;;1.40;;
79084;SDS011;68486;42.808;23.422;2023-04-03T00:59:43;1.70;;;1.40;;
79084;SDS011;68486;42.808;23.422;2023-04-03T01:02:14;2.50;;;1.40;;
79084;SDS011;68486;42.808;23.422;2023-04-03T01:04:40;2.85;;;1.92;;
79084;SDS011;68486;42.808;23.422;2023-04-03T01:09:48;2.30;;;1.40;;
79084;SDS011;68486;42.808;23.422;2023-04-03T01:12:21;2.10;;;1.60;;
79084;SDS011;68486;42.808;23.422;2023-04-03T01:14:48;2.22;;;1.55;;
79084;SDS011;68486;42.808;23.422;2023-04-03T01:25:28;3.42;;;2.35;;
79084;SDS011;68486;42.808;23.422;2023-04-03T01:27:54;3.45;;;2.13;;
79084;SDS011;68486;42.808;23.422;2023-04-03T01:30:20;4.15;;;2.35;;
79084;SDS011;68486;42.808;23.422;2023-04-03T01:32:50;5.60;;;3.00;;
79084;SDS011;68486;42.808;23.422;2023-04-03T01:35:15;5.40;;;3.17;;
79084;SDS011;68486;42.808;23.422;2023-04-03T01:37:40;5.22;;;2.88;;
79084;SDS011;68486;42.808;23.422;2023-04-03T01:40:06;4.35;;;2.83;;
79084;SDS011;68486;42.808;23.422;2023-04-03T01:42:33;5.28;;;3.63;;
79084;SDS011;68486;42.808;23.422;2023-04-03T01:44:58;4.65;;;2.67;;
79084;SDS011;68486;42.808;23.422;2023-04-03T01:47:24;4.22;;;2.50;;
79084;SDS011;68486;42.808;23.422;2023-04-03T01:49:49;4.20;;;2.58;;
79084;SDS011;68486;42.808;23.422;2023-04-03T01:52:14;3.25;;;2.10;;
79084;SDS011;68486;42.808;23.422;2023-04-03T01:54:40;3.50;;;2.33;;
79084;SDS011;68486;42.808;23.422;2023-04-03T01:57:05;2.42;;;1.67;;
79084;SDS011;68486;42.808;23.422;2023-04-03T01:59:31;2.15;;;1.55;;
79084;SDS011;68486;42.808;23.422;2023-04-03T02:01:56;2.70;;;1.70;;
79084;SDS011;68486;42.808;23.422;2023-04-03T02:04:22;3.92;;;2.30;;
79084;SDS011;68486;42.808;23.422;2023-04-03T02:06:47;2.75;;;1.90;;
79084;SDS011;68486;42.808;23.422;2023-04-03T02:09:13;3.72;;;2.20;;
79084;SDS011;68486;42.808;23.422;2023-04-03T02:11:38;3.15;;;1.77;;
79084;SDS011;68486;42.808;23.422;2023-04-03T02:14:04;3.97;;;2.13;;
79084;SDS011;68486;42.808;23.422;2023-04-03T02:16:30;2.72;;;1.35;;
79084;SDS011;68486;42.808;23.422;2023-04-03T02:18:55;2.10;;;1.48;;
79084;SDS011;68486;42.808;23.422;2023-04-03T02:21:21;2.58;;;1.67;;
79084;SDS011;68486;42.808;23.422;2023-04-03T02:23:46;1.85;;;1.60;;
79084;SDS011;68486;42.808;23.422;2023-04-03T02:26:13;3.97;;;1.50;;
79084;SDS011;68486;42.808;23.422;2023-04-03T02:28:40;2.80;;;1.90;;
79084;SDS011;68486;42.808;23.422;2023-04-03T02:31:06;3.38;;;1.98;;
79084;SDS011;68486;42.808;23.422;2023-04-03T02:33:33;3.97;;;2.13;;
79084;SDS011;68486;42.808;23.422;2023-04-03T02:35:59;2.70;;;1.88;;
79084;SDS011;68486;42.808;23.422;2023-04-03T02:38:25;2.40;;;1.60;;
79084;SDS011;68486;42.808;23.422;2023-04-03T02:40:50;2.50;;;1.77;;
79084;SDS011;68486;42.808;23.422;2023-04-03T02:43:16;3.72;;;2.00;;
79084;SDS011;68486;42.808;23.422;2023-04-03T02:45:42;2.92;;;1.95;;
79084;SDS011;68486;42.808;23.422;2023-04-03T02:48:08;3.35;;;2.35;;
79084;SDS011;68486;42.808;23.422;2023-04-03T02:50:33;4.78;;;2.50;;
79084;SDS011;68486;42.808;23.422;2023-04-03T02:52:59;3.05;;;2.20;;
79084;SDS011;68486;42.808;23.422;2023-04-03T02:55:24;2.80;;;2.20;;
79084;SDS011;68486;42.808;23.422;2023-04-03T02:57:50;3.47;;;2.65;;
79084;SDS011;68486;42.808;23.422;2023-04-03T03:00:15;5.05;;;2.80;;
79084;SDS011;68486;42.808;23.422;2023-04-03T03:02:41;4.05;;;2.80;;
79084;SDS011;68486;42.808;23.422;2023-04-03T03:05:08;3.75;;;2.60;;
79084;SDS011;68486;42.808;23.422;2023-04-03T03:07:33;4.55;;;2.60;;
79084;SDS011;68486;42.808;23.422;2023-04-03T03:09:59;3.90;;;2.25;;
79084;SDS011;68486;42.808;23.422;2023-04-03T03:12:24;3.25;;;2.40;;
79084;SDS011;68486;42.808;23.422;2023-04-03T03:14:50;3.35;;;2.40;;
79084;SDS011;68486;42.808;23.422;2023-04-03T03:17:15;3.75;;;2.22;;
79084;SDS011;68486;42.808;23.422;2023-04-03T03:19:42;3.58;;;2.53;;
79084;SDS011;68486;42.808;23.422;2023-04-03T03:22:08;6.43;;;2.17;;
79084;SDS011;68486;42.808;23.422;2023-04-03T03:24:33;2.50;;;2.00;;
79084;SDS011;68486;42.808;23.422;2023-04-03T03:26:59;3.40;;;2.05;;
79084;SDS011;68486;42.808;23.422;2023-04-03T03:29:24;3.53;;;1.95;;
79084;SDS011;68486;42.808;23.422;2023-04-03T03:31:50;3.45;;;2.35;;
79084;SDS011;68486;42.808;23.422;2023-04-03T03:34:16;3.13;;;2.00;;
79084;SDS011;68486;42.808;23.422;2023-04-03T03:36:42;3.38;;;2.30;;
79084;SDS011;68486;42.808;23.422;2023-04-03T03:39:07;3.05;;;1.90;;
79084;SDS011;68486;42.808;23.422;2023-04-03T03:41:33;3.70;;;1.98;;
79084;SDS011;68486;42.808;23.422;2023-04-03T03:43:58;3.13;;;1.83;;
79084;SDS011;68486;42.808;23.422;2023-04-03T03:46:23;6.00;;;1.90;;
79084;SDS011;68486;42.808;23.422;2023-04-03T03:48:49;2.50;;;1.77;;
79084;SDS011;68486;42.808;23.422;2023-04-03T03:51:15;3.20;;;2.20;;
79084;SDS011;68486;42.808;23.422;2023-04-03T03:53:40;3.00;;;1.90;;
79084;SDS011;68486;42.808;23.422;2023-04-03T03:56:06;2.67;;;1.88;;
79084;SDS011;68486;42.808;23.422;2023-04-03T03:58:32;3.42;;;1.92;;
79084;SDS011;68486;42.808;23.422;2023-04-03T04:01:04;3.22;;;1.67;;
79084;SDS011;68486;42.808;23.422;2023-04-03T04:03:30;3.42;;;2.17;;
79084;SDS011;68486;42.808;23.422;2023-04-03T04:05:56;3.80;;;2.03;;
79084;SDS011;68486;42.808;23.422;2023-04-03T04:08:21;3.47;;;2.45;;
79084;SDS011;68486;42.808;23.422;2023-04-03T04:10:47;3.58;;;2.00;;
79084;SDS011;68486;42.808;23.422;2023-04-03T04:13:13;4.00;;;2.50;;
79084;SDS011;68486;42.808;23.422;2023-04-03T04:15:38;3.75;;;2.20;;
79084;SDS011;68486;42.808;23.422;2023-04-03T04:18:04;2.40;;;1.90;;
79084;SDS011;68486;42.808;23.422;2023-04-03T04:20:29;2.95;;;1.75;;
79084;SDS011;68486;42.808;23.422;2023-04-03T04:22:55;3.00;;;1.88;;
79084;SDS011;68486;42.808;23.422;2023-04-03T04:25:20;2.35;;;1.85;;
79084;SDS011;68486;42.808;23.422;2023-04-03T04:27:45;4.90;;;2.45;;
79084;SDS011;68486;42.808;23.422;2023-04-03T04:30:11;2.30;;;1.90;;
79084;SDS011;68486;42.808;23.422;2023-04-03T04:32:37;2.85;;;2.05;;
79084;SDS011;68486;42.808;23.422;2023-04-03T04:35:03;4.75;;;2.30;;
79084;SDS011;68486;42.808;23.422;2023-04-03T04:37:29;2.45;;;1.77;;
79084;SDS011;68486;42.808;23.422;2023-04-03T04:39:55;3.13;;;2.00;;
79084;SDS011;68486;42.808;23.422;2023-04-03T04:42:20;48.72;;;6.07;;
79084;SDS011;68486;42.808;23.422;2023-04-03T04:44:46;13.27;;;2.67;;
79084;SDS011;68486;42.808;23.422;2023-04-03T04:47:11;3.05;;;2.17;;
79084;SDS011;68486;42.808;23.422;2023-04-03T04:49:37;2.88;;;1.92;;
79084;SDS011;68486;42.808;23.422;2023-04-03T04:52:02;3.28;;;2.10;;
79084;SDS011;68486;42.808;23.422;2023-04-03T04:54:28;3.17;;;1.80;;
79084;SDS011;68486;42.808;23.422;2023-04-03T04:56:53;3.20;;;1.88;;
79084;SDS011;68486;42.808;23.422;2023-04-03T04:59:19;3.28;;;2.20;;
79084;SDS011;68486;42.808;23.422;2023-04-03T05:01:44;3.40;;;1.83;;
79084;SDS011;68486;42.808;23.422;2023-04-03T05:04:10;3.70;;;2.47;;
79084;SDS011;68486;42.808;23.422;2023-04-03T05:06:38;3.65;;;2.00;;
79084;SDS011;68486;42.808;23.422;2023-04-03T05:09:04;3.30;;;2.05;;
79084;SDS011;68486;42.808;23.422;2023-04-03T05:11:30;4.32;;;2.60;;
79084;SDS011;68486;42.808;23.422;2023-04-03T05:13:55;3.83;;;2.60;;
79084;SDS011;68486;42.808;23.422;2023-04-03T05:16:21;4.75;;;2.75;;
79084;SDS011;68486;42.808;23.422;2023-04-03T05:18:46;4.55;;;2.60;;
79084;SDS011;68486;42.808;23.422;2023-04-03T05:21:12;3.50;;;2.70;;
79084;SDS011;68486;42.808;23.422;2023-04-03T05:23:37;3.15;;;2.30;;
79084;SDS011;68486;42.808;23.422;2023-04-03T05:26:03;3.80;;;2.30;;
79084;SDS011;68486;42.808;23.422;2023-04-03T05:28:29;3.20;;;2.10;;
79084;SDS011;68486;42.808;23.422;2023-04-03T05:30:55;3.22;;;2.28;;
79084;SDS011;68486;42.808;23.422;2023-04-03T05:33:22;4.70;;;2.45;;
79084;SDS011;68486;42.808;23.422;2023-04-03T05:35:48;3.92;;;2.78;;
79084;SDS011;68486;42.808;23.422;2023-04-03T05:38:13;3.03;;;2.25;;
79084;SDS011;68486;42.808;23.422;2023-04-03T05:40:39;7.40;;;2.75;;
79084;SDS011;68486;42.808;23.422;2023-04-03T05:43:05;5.70;;;2.45;;
79084;SDS011;68486;42.808;23.422;2023-04-03T05:45:30;5.35;;;3.05;;
79084;SDS011;68486;42.808;23.422;2023-04-03T05:47:56;4.18;;;3.00;;
79084;SDS011;68486;42.808;23.422;2023-04-03T05:50:21;4.45;;;3.30;;
79084;SDS011;68486;42.808;23.422;2023-04-03T05:52:47;5.03;;;3.80;;
79084;SDS011;68486;42.808;23.422;2023-04-03T05:55:15;8.75;;;6.68;;
79084;SDS011;68486;42.808;23.422;2023-04-03T05:57:40;10.60;;;8.20;;
79084;SDS011;68486;42.808;23.422;2023-04-03T06:00:07;10.13;;;6.25;;
79084;SDS011;68486;42.808;23.422;2023-04-03T06:02:34;11.88;;;7.88;;
79084;SDS011;68486;42.808;23.422;2023-04-03T06:05:00;7.40;;;5.38;;
79084;SDS011;68486;42.808;23.422;2023-04-03T06:07:26;7.32;;;4.40;;
79084;SDS011;68486;42.808;23.422;2023-04-03T06:09:53;6.13;;;4.00;;
79084;SDS011;68486;42.808;23.422;2023-04-03T06:12:20;5.95;;;4.22;;
79084;SDS011;68486;42.808;23.422;2023-04-03T06:14:47;6.15;;;4.68;;
79084;SDS011;68486;42.808;23.422;2023-04-03T06:17:13;5.25;;;3.65;;
79084;SDS011;68486;42.808;23.422;2023-04-03T06:19:40;6.18;;;4.22;;
79084;SDS011;68486;42.808;23.422;2023-04-03T06:28:16;5.18;;;3.10;;
79084;SDS011;68486;42.808;23.422;2023-04-03T06:34:03;6.40;;;2.47;;
79084;SDS011;68486;42.808;23.422;2023-04-03T06:36:29;5.22;;;2.75;;
79084;SDS011;68486;42.808;23.422;2023-04-03T06:38:54;4.38;;;2.45;;
79084;SDS011;68486;42.808;23.422;2023-04-03T06:41:20;4.38;;;2.55;;
79084;SDS011;68486;42.808;23.422;2023-04-03T06:43:46;3.60;;;2.50;;
79084;SDS011;68486;42.808;23.422;2023-04-03T06:46:15;3.60;;;2.60;;
79084;SDS011;68486;42.808;23.422;2023-04-03T06:48:46;4.05;;;3.10;;
79084;SDS011;68486;42.808;23.422;2023-04-03T06:51:19;3.95;;;3.22;;
79084;SDS011;68486;42.808;23.422;2023-04-03T06:53:50;7.00;;;3.75;;
79084;SDS011;68486;42.808;23.422;2023-04-03T06:56:17;5.93;;;3.63;;
79084;SDS011;68486;42.808;23.422;2023-04-03T06:58:43;4.13;;;3.00;;
79084;SDS011;68486;42.808;23.422;2023-04-03T07:01:11;7.60;;;5.10;;
79084;SDS011;68486;42.808;23.422;2023-04-03T07:03:37;9.00;;;5.90;;
79084;SDS011;68486;42.808;23.422;2023-04-03T07:06:04;12.35;;;5.63;;
79084;SDS011;68486;42.808;23.422;2023-04-03T07:08:32;6.88;;;4.93;;
79084;SDS011;68486;42.808;23.422;2023-04-03T07:10:58;7.45;;;4.28;;
79084;SDS011;68486;42.808;23.422;2023-04-03T07:13:24;8.82;;;5.70;;
79084;SDS011;68486;42.808;23.422;2023-04-03T07:15:49;11.70;;;7.35;;
79084;SDS011;68486;42.808;23.422;2023-04-03T07:18:15;14.05;;;6.65;;
79084;SDS011;68486;42.808;23.422;2023-04-03T07:20:41;10.90;;;7.40;;
79084;SDS011;68486;42.808;23.422;2023-04-03T07:23:07;10.75;;;6.38;;
79084;SDS011;68486;42.808;23.422;2023-04-03T07:25:33;10.30;;;5.88;;
79084;SDS011;68486;42.808;23.422;2023-04-03T07:27:59;18.17;;;10.23;;
79084;SDS011;68486;42.808;23.422;2023-04-03T07:30:24;14.25;;;7.82;;
79084;SDS011;68486;42.808;23.422;2023-04-03T07:32:51;11.23;;;6.93;;
79084;SDS011;68486;42.808;23.422;2023-04-03T07:35:17;12.45;;;8.20;;
79084;SDS011;68486;42.808;23.422;2023-04-03T07:37:42;13.88;;;7.35;;
79084;SDS011;68486;42.808;23.422;2023-04-03T07:40:08;9.40;;;6.45;;
79084;SDS011;68486;42.808;23.422;2023-04-03T07:42:34;11.45;;;7.00;;
79084;SDS011;68486;42.808;23.422;2023-04-03T07:45:01;11.85;;;6.90;;
79084;SDS011;68486;42.808;23.422;2023-04-03T07:47:29;9.05;;;6.80;;
79084;SDS011;68486;42.808;23.422;2023-04-03T07:49:56;11.65;;;6.63;;
79084;SDS011;68486;42.808;23.422;2023-04-03T07:52:22;8.38;;;5.10;;
79084;SDS011;68486;42.808;23.422;2023-04-03T07:54:48;9.05;;;5.70;;
79084;SDS011;68486;42.808;23.422;2023-04-03T07:59:48;11.95;;;7.00;;
79084;SDS011;68486;42.808;23.422;2023-04-03T08:02:14;14.35;;;6.85;;
79084;SDS011;68486;42.808;23.422;2023-04-03T08:04:39;11.45;;;5.88;;
79084;SDS011;68486;42.808;23.422;2023-04-03T08:07:05;8.98;;;5.53;;
79084;SDS011;68486;42.808;23.422;2023-04-03T08:09:30;10.15;;;6.28;;
79084;SDS011;68486;42.808;23.422;2023-04-03T08:11:56;9.70;;;5.38;;
79084;SDS011;68486;42.808;23.422;2023-04-03T08:14:22;10.80;;;6.00;;
79084;SDS011;68486;42.808;23.422;2023-04-03T08:16:48;13.15;;;6.90;;
79084;SDS011;68486;42.808;23.422;2023-04-03T08:19:14;10.90;;;6.72;;
79084;SDS011;68486;42.808;23.422;2023-04-03T08:21:41;9.52;;;7.07;;
79084;SDS011;68486;42.808;23.422;2023-04-03T08:24:07;10.50;;;6.10;;
79084;SDS011;68486;42.808;23.422;2023-04-03T08:26:34;8.27;;;6.22;;
79084;SDS011;68486;42.808;23.422;2023-04-03T08:28:59;8.48;;;5.57;;
79084;SDS011;68486;42.808;23.422;2023-04-03T08:31:25;7.50;;;4.60;;
79084;SDS011;68486;42.808;23.422;2023-04-03T08:33:50;8.52;;;5.00;;
79084;SDS011;68486;42.808;23.422;2023-04-03T08:36:26;8.57;;;5.25;;
79084;SDS011;68486;42.808;23.422;2023-04-03T08:38:53;7.68;;;4.85;;
79084;SDS011;68486;42.808;23.422;2023-04-03T08:49:35;8.40;;;5.00;;
79084;SDS011;68486;42.808;23.422;2023-04-03T08:52:08;9.18;;;4.88;;
79084;SDS011;68486;42.808;23.422;2023-04-03T08:54:41;9.70;;;4.70;;
79084;SDS011;68486;42.808;23.422;2023-04-03T08:57:15;8.30;;;4.72;;
79084;SDS011;68486;42.808;23.422;2023-04-03T08:59:42;8.45;;;4.90;;
79084;SDS011;68486;42.808;23.422;2023-04-03T09:02:51;9.60;;;4.45;;
79084;SDS011;68486;42.808;23.422;2023-04-03T09:05:01;6.03;;;4.28;;
79084;SDS011;68486;42.808;23.422;2023-04-03T09:10:27;4.63;;;3.78;;
79084;SDS011;68486;42.808;23.422;2023-04-03T09:13:06;5.60;;;3.97;;
79084;SDS011;68486;42.808;23.422;2023-04-03T09:15:38;12.20;;;4.82;;
79084;SDS011;68486;42.808;23.422;2023-04-03T09:18:06;7.13;;;3.90;;
79084;SDS011;68486;42.808;23.422;2023-04-03T09:20:45;5.70;;;3.67;;
79084;SDS011;68486;42.808;23.422;2023-04-03T09:26:18;6.35;;;3.80;;
79084;SDS011;68486;42.808;23.422;2023-04-03T09:28:50;6.00;;;4.13;;
79084;SDS011;68486;42.808;23.422;2023-04-03T09:31:26;5.45;;;3.85;;
79084;SDS011;68486;42.808;23.422;2023-04-03T09:33:56;6.85;;;4.53;;
79084;SDS011;68486;42.808;23.422;2023-04-03T09:36:46;5.53;;;4.00;;
79084;SDS011;68486;42.808;23.422;2023-04-03T09:39:20;6.53;;;4.13;;
79084;SDS011;68486;42.808;23.422;2023-04-03T09:44:25;6.78;;;4.82;;
79084;SDS011;68486;42.808;23.422;2023-04-03T09:46:53;9.30;;;4.97;;
79084;SDS011;68486;42.808;23.422;2023-04-03T09:49:19;7.88;;;4.93;;
79084;SDS011;68486;42.808;23.422;2023-04-03T09:51:44;6.47;;;4.25;;
79084;SDS011;68486;42.808;23.422;2023-04-03T09:56:54;9.23;;;5.25;;
79084;SDS011;68486;42.808;23.422;2023-04-03T09:59:23;12.50;;;3.97;;
79084;SDS011;68486;42.808;23.422;2023-04-03T10:05:25;1.48;;;1.15;;
79084;SDS011;68486;42.808;23.422;2023-04-03T10:07:51;6.22;;;2.80;;
79084;SDS011;68486;42.808;23.422;2023-04-03T10:12:45;8.48;;;4.85;;
79084;SDS011;68486;42.808;23.422;2023-04-03T10:15:11;2.50;;;1.83;;
79084;SDS011;68486;42.808;23.422;2023-04-03T10:23:24;2.03;;;1.40;;
79084;SDS011;68486;42.808;23.422;2023-04-03T10:28:48;1.98;;;1.48;;
79084;SDS011;68486;42.808;23.422;2023-04-03T10:31:25;2.47;;;1.40;;
79084;SDS011;68486;42.808;23.422;2023-04-03T10:56:03;1.73;;;1.20;;
79084;SDS011;68486;42.808;23.422;2023-04-03T10:58:45;1.70;;;1.42;;
79084;SDS011;68486;42.808;23.422;2023-04-03T11:01:35;1.30;;;1.10;;
79084;SDS011;68486;42.808;23.422;2023-04-03T11:04:06;1.80;;;1.20;;
79084;SDS011;68486;42.808;23.422;2023-04-03T11:06:37;1.33;;;1.20;;
79084;SDS011;68486;42.808;23.422;2023-04-03T11:09:15;2.42;;;1.40;;
79084;SDS011;68486;42.808;23.422;2023-04-03T11:11:42;1.98;;;1.50;;
79084;SDS011;68486;42.808;23.422;2023-04-03T11:16:40;2.67;;;1.73;;
79084;SDS011;68486;42.808;23.422;2023-04-03T11:19:12;3.13;;;1.70;;
79084;SDS011;68486;42.808;23.422;2023-04-03T11:21:48;2.97;;;1.75;;
79084;SDS011;68486;42.808;23.422;2023-04-03T11:24:25;2.17;;;1.40;;
79084;SDS011;68486;42.808;23.422;2023-04-03T11:26:53;3.08;;;1.30;;
79084;SDS011;68486;42.808;23.422;2023-04-03T11:29:22;2.17;;;1.70;;
79084;SDS011;68486;42.808;23.422;2023-04-03T11:35:13;6.88;;;4.55;;
79084;SDS011;68486;42.808;23.422;2023-04-03T11:37:44;16.52;;;9.68;;
79084;SDS011;68486;42.808;23.422;2023-04-03T11:42:46;4.40;;;1.80;;
79084;SDS011;68486;42.808;23.422;2023-04-03T11:47:47;2.25;;;1.38;;
79084;SDS011;68486;42.808;23.422;2023-04-03T11:50:30;5.97;;;3.97;;
79084;SDS011;68486;42.808;23.422;2023-04-03T11:53:09;6.75;;;3.97;;
79084;SDS011;68486;42.808;23.422;2023-04-03T11:55:54;6.03;;;4.22;;
79084;SDS011;68486;42.808;23.422;2023-04-03T12:00:55;7.72;;;4.50;;
79084;SDS011;68486;42.808;23.422;2023-04-03T12:13:39;6.30;;;5.10;;
79084;SDS011;68486;42.808;23.422;2023-04-03T12:21:14;5.60;;;3.83;;
79084;SDS011;68486;42.808;23.422;2023-04-03T12:26:50;7.18;;;4.50;;
79084;SDS011;68486;42.808;23.422;2023-04-03T12:45:40;5.43;;;4.10;;
79084;SDS011;68486;42.808;23.422;2023-04-03T12:48:05;7.53;;;3.28;;
79084;SDS011;68486;42.808;23.422;2023-04-03T12:50:43;5.88;;;3.65;;
79084;SDS011;68486;42.808;23.422;2023-04-03T12:55:57;6.78;;;3.50;;
79084;SDS011;68486;42.808;23.422;2023-04-03T12:58:55;5.75;;;3.50;;
79084;SDS011;68486;42.808;23.422;2023-04-03T13:01:37;5.18;;;3.60;;
79084;SDS011;68486;42.808;23.422;2023-04-03T13:04:02;4.85;;;3.35;;
79084;SDS011;68486;42.808;23.422;2023-04-03T13:06:37;3.90;;;2.47;;
79084;SDS011;68486;42.808;23.422;2023-04-03T13:09:06;2.40;;;1.77;;
79084;SDS011;68486;42.808;23.422;2023-04-03T13:11:42;3.47;;;2.28;;
79084;SDS011;68486;42.808;23.422;2023-04-03T13:14:16;3.67;;;2.55;;
79084;SDS011;68486;42.808;23.422;2023-04-03T13:17:26;3.40;;;2.40;;
79084;SDS011;68486;42.808;23.422;2023-04-03T13:19:37;3.65;;;2.33;;
79084;SDS011;68486;42.808;23.422;2023-04-03T13:22:05;3.58;;;2.28;;
79084;SDS011;68486;42.808;23.422;2023-04-03T13:24:35;2.92;;;2.10;;
79084;SDS011;68486;42.808;23.422;2023-04-03T13:27:03;4.00;;;2.47;;
79084;SDS011;68486;42.808;23.422;2023-04-03T13:29:31;4.65;;;2.72;;
79084;SDS011;68486;42.808;23.422;2023-04-03T13:31:59;5.15;;;2.58;;
79084;SDS011;68486;42.808;23.422;2023-04-03T13:34:27;4.25;;;2.88;;
79084;SDS011;68486;42.808;23.422;2023-04-03T13:36:57;4.95;;;2.50;;
79084;SDS011;68486;42.808;23.422;2023-04-03T13:41:53;4.90;;;2.72;;
79084;SDS011;68486;42.808;23.422;2023-04-03T13:46:56;6.20;;;2.40;;
79084;SDS011;68486;42.808;23.422;2023-04-03T13:50:30;4.43;;;2.60;;
79084;SDS011;68486;42.808;23.422;2023-04-03T13:52:43;4.18;;;2.42;;
79084;SDS011;68486;42.808;23.422;2023-04-03T13:58:01;6.10;;;3.75;;
79084;SDS011;68486;42.808;23.422;2023-04-03T14:03:16;6.60;;;3.55;;
79084;SDS011;68486;42.808;23.422;2023-04-03T14:05:47;6.30;;;3.85;;
79084;SDS011;68486;42.808;23.422;2023-04-03T14:08:12;5.22;;;3.53;;
79084;SDS011;68486;42.808;23.422;2023-04-03T14:10:38;6.45;;;3.58;;
79084;SDS011;68486;42.808;23.422;2023-04-03T14:13:04;4.57;;;3.30;;
79084;SDS011;68486;42.808;23.422;2023-04-03T14:15:30;4.57;;;3.28;;
79084;SDS011;68486;42.808;23.422;2023-04-03T14:17:56;4.32;;;2.63;;
79084;SDS011;68486;42.808;23.422;2023-04-03T14:20:23;5.80;;;2.63;;
79084;SDS011;68486;42.808;23.422;2023-04-03T14:22:50;3.47;;;2.17;;
79084;SDS011;68486;42.808;23.422;2023-04-03T14:25:18;4.28;;;2.45;;
79084;SDS011;68486;42.808;23.422;2023-04-03T14:27:45;5.50;;;2.10;;
79084;SDS011;68486;42.808;23.422;2023-04-03T14:30:17;2.75;;;1.80;;
79084;SDS011;68486;42.808;23.422;2023-04-03T14:32:48;3.17;;;2.08;;
79084;SDS011;68486;42.808;23.422;2023-04-03T14:35:14;2.60;;;1.60;;
79084;SDS011;68486;42.808;23.422;2023-04-03T14:37:41;4.85;;;2.05;;
79084;SDS011;68486;42.808;23.422;2023-04-03T14:40:07;2.53;;;1.80;;
79084;SDS011;68486;42.808;23.422;2023-04-03T14:42:34;2.83;;;2.25;;
79084;SDS011;68486;42.808;23.422;2023-04-03T14:45:02;3.17;;;1.80;;
79084;SDS011;68486;42.808;23.422;2023-04-03T14:47:30;6.40;;;5.30;;
79084;SDS011;68486;42.808;23.422;2023-04-03T14:49:56;12.20;;;9.10;;
79084;SDS011;68486;42.808;23.422;2023-04-03T14:52:24;4.28;;;2.50;;
79084;SDS011;68486;42.808;23.422;2023-04-03T14:54:55;4.57;;;2.60;;
79084;SDS011;68486;42.808;23.422;2023-04-03T14:57:22;4.03;;;2.47;;
79084;SDS011;68486;42.808;23.422;2023-04-03T14:59:50;3.67;;;2.33;;
79084;SDS011;68486;42.808;23.422;2023-04-03T15:05:03;5.18;;;3.00;;
79084;SDS011;68486;42.808;23.422;2023-04-03T15:07:35;5.68;;;2.88;;
79084;SDS011;68486;42.808;23.422;2023-04-03T15:10:09;4.53;;;2.97;;
79084;SDS011;68486;42.808;23.422;2023-04-03T15:12:38;3.83;;;2.90;;
79084;SDS011;68486;42.808;23.422;2023-04-03T15:15:04;4.20;;;3.10;;
79084;SDS011;68486;42.808;23.422;2023-04-03T15:17:30;5.65;;;3.53;;
79084;SDS011;68486;42.808;23.422;2023-04-03T15:19:55;4.72;;;3.25;;
79084;SDS011;68486;42.808;23.422;2023-04-03T15:22:21;4.53;;;3.83;;
79084;SDS011;68486;42.808;23.422;2023-04-03T15:24:46;4.28;;;3.33;;
79084;SDS011;68486;42.808;23.422;2023-04-03T15:27:12;4.72;;;3.53;;
79084;SDS011;68486;42.808;23.422;2023-04-03T15:29:39;5.90;;;3.40;;
79084;SDS011;68486;42.808;23.422;2023-04-03T15:32:06;4.20;;;3.55;;
79084;SDS011;68486;42.808;23.422;2023-04-03T15:34:32;4.10;;;3.28;;
79084;SDS011;68486;42.808;23.422;2023-04-03T15:36:57;4.43;;;3.25;;
79084;SDS011;68486;42.808;23.422;2023-04-03T15:39:24;4.90;;;3.35;;
79084;SDS011;68486;42.808;23.422;2023-04-03T15:41:50;5.40;;;3.20;;
79084;SDS011;68486;42.808;23.422;2023-04-03T15:44:17;4.50;;;3.50;;
79084;SDS011;68486;42.808;23.422;2023-04-03T15:46:43;4.32;;;3.22;;
79084;SDS011;68486;42.808;23.422;2023-04-03T15:49:09;4.90;;;3.50;;
79084;SDS011;68486;42.808;23.422;2023-04-03T15:51:35;5.35;;;3.60;;
79084;SDS011;68486;42.808;23.422;2023-04-03T15:54:00;4.97;;;3.67;;
79084;SDS011;68486;42.808;23.422;2023-04-03T15:56:26;4.22;;;3.50;;
79084;SDS011;68486;42.808;23.422;2023-04-03T15:58:51;5.35;;;3.63;;
79084;SDS011;68486;42.808;23.422;2023-04-03T16:01:17;4.28;;;3.72;;
79084;SDS011;68486;42.808;23.422;2023-04-03T16:03:42;4.88;;;3.15;;
79084;SDS011;68486;42.808;23.422;2023-04-03T16:06:13;5.50;;;3.75;;
79084;SDS011;68486;42.808;23.422;2023-04-03T16:08:40;7.05;;;3.35;;
79084;SDS011;68486;42.808;23.422;2023-04-03T16:11:07;6.35;;;3.70;;
79084;SDS011;68486;42.808;23.422;2023-04-03T16:13:32;5.65;;;4.53;;
79084;SDS011;68486;42.808;23.422;2023-04-03T16:15:58;5.32;;;3.72;;
79084;SDS011;68486;42.808;23.422;2023-04-03T16:18:25;6.93;;;4.28;;
79084;SDS011;68486;42.808;23.422;2023-04-03T16:20:51;5.93;;;4.47;;
79084;SDS011;68486;42.808;23.422;2023-04-03T16:23:17;8.40;;;6.10;;
79084;SDS011;68486;42.808;23.422;2023-04-03T16:25:43;6.35;;;5.43;;
79084;SDS011;68486;42.808;23.422;2023-04-03T16:28:11;9.88;;;7.40;;
79084;SDS011;68486;42.808;23.422;2023-04-03T16:30:37;9.85;;;5.88;;
79084;SDS011;68486;42.808;23.422;2023-04-03T16:33:05;6.10;;;4.75;;
79084;SDS011;68486;42.808;23.422;2023-04-03T16:35:30;8.45;;;5.20;;
79084;SDS011;68486;42.808;23.422;2023-04-03T16:37:55;7.80;;;4.80;;
79084;SDS011;68486;42.808;23.422;2023-04-03T16:40:21;5.95;;;4.25;;
79084;SDS011;68486;42.808;23.422;2023-04-03T16:42:46;4.25;;;3.58;;
79084;SDS011;68486;42.808;23.422;2023-04-03T16:45:12;6.65;;;4.57;;
79084;SDS011;68486;42.808;23.422;2023-04-03T16:47:37;5.88;;;4.68;;
79084;SDS011;68486;42.808;23.422;2023-04-03T16:50:03;8.23;;;4.63;;
79084;SDS011;68486;42.808;23.422;2023-04-03T16:52:29;7.90;;;5.93;;
79084;SDS011;68486;42.808;23.422;2023-04-03T16:54:55;7.07;;;5.72;;
79084;SDS011;68486;42.808;23.422;2023-04-03T16:57:21;7.07;;;5.13;;
79084;SDS011;68486;42.808;23.422;2023-04-03T16:59:47;6.30;;;4.85;;
79084;SDS011;68486;42.808;23.422;2023-04-03T17:02:15;7.28;;;5.60;;